sensor_id;sensor_type;location;lat;lon;timestamp;P1;durP1;ratioP1;P2;durP2;ratioP2
82399;SDS011;72039;48.812;8.198;2024-01-15T00:00:00;35.90;;;13.90;;
82399;SDS011;72039;48.812;8.198;2024-01-15T00:05:49;43.22;;;13.85;;
82399;SDS011;72039;48.812;8.198;2024-01-15T00:11:36;32.90;;;13.82;;
82399;SDS011;72039;48.812;8.198;2024-01-15T00:17:43;38.95;;;13.80;;
82399;SDS011;72039;48.812;8.198;2024-01-15T00:23:32;40.53;;;12.77;;
82399;SDS011;72039;48.812;8.198;2024-01-15T00:32:39;42.38;;;15.20;;
82399;SDS011;72039;48.812;8.198;2024-01-15T00:38:26;38.88;;;12.65;;
82399;SDS011;72039;48.812;8.198;2024-01-15T00:44:15;44.20;;;14.85;;
82399;SDS011;72039;48.812;8.198;2024-01-15T00:50:02;37.67;;;14.73;;
82399;SDS011;72039;48.812;8.198;2024-01-15T00:55:51;38.15;;;13.88;;
82399;SDS011;72039;48.812;8.198;2024-01-15T01:01:38;40.42;;;14.75;;
82399;SDS011;72039;48.812;8.198;2024-01-15T01:07:29;42.92;;;14.02;;
82399;SDS011;72039;48.812;8.198;2024-01-15T01:16:40;41.25;;;14.25;;
82399;SDS011;72039;48.812;8.198;2024-01-15T01:22:27;43.17;;;16.55;;
82399;SDS011;72039;48.812;8.198;2024-01-15T01:28:14;40.55;;;14.77;;
82399;SDS011;72039;48.812;8.198;2024-01-15T01:34:03;36.42;;;14.30;;
82399;SDS011;72039;48.812;8.198;2024-01-15T01:39:50;43.97;;;16.10;;
82399;SDS011;72039;48.812;8.198;2024-01-15T01:45:37;43.95;;;15.60;;
82399;SDS011;72039;48.812;8.198;2024-01-15T01:51:24;46.25;;;14.98;;
82399;SDS011;72039;48.812;8.198;2024-01-15T01:57:16;42.83;;;15.90;;
82399;SDS011;72039;48.812;8.198;2024-01-15T02:03:05;39.50;;;14.10;;
82399;SDS011;72039;48.812;8.198;2024-01-15T02:08:57;48.38;;;17.85;;
82399;SDS011;72039;48.812;8.198;2024-01-15T02:24:51;50.05;;;16.08;;
82399;SDS011;72039;48.812;8.198;2024-01-15T02:30:38;40.80;;;14.68;;
82399;SDS011;72039;48.812;8.198;2024-01-15T02:36:28;46.88;;;16.33;;
82399;SDS011;72039;48.812;8.198;2024-01-15T02:42:15;52.25;;;17.80;;
82399;SDS011;72039;48.812;8.198;2024-01-15T02:48:02;38.50;;;15.23;;
82399;SDS011;72039;48.812;8.198;2024-01-15T02:53:49;38.00;;;14.25;;
82399;SDS011;72039;48.812;8.198;2024-01-15T02:59:37;34.95;;;13.27;;
82399;SDS011;72039;48.812;8.198;2024-01-15T03:05:24;40.03;;;14.35;;
82399;SDS011;72039;48.812;8.198;2024-01-15T03:11:04;35.17;;;12.80;;
82399;SDS011;72039;48.812;8.198;2024-01-15T03:13:30;40.22;;;14.93;;
82399;SDS011;72039;48.812;8.198;2024-01-15T03:15:56;39.83;;;15.68;;
82399;SDS011;72039;48.812;8.198;2024-01-15T03:18:21;43.15;;;15.73;;
82399;SDS011;72039;48.812;8.198;2024-01-15T03:20:47;49.88;;;15.35;;
82399;SDS011;72039;48.812;8.198;2024-01-15T03:23:24;35.75;;;14.10;;
82399;SDS011;72039;48.812;8.198;2024-01-15T03:25:57;46.28;;;15.60;;
82399;SDS011;72039;48.812;8.198;2024-01-15T03:28:22;39.30;;;14.18;;
82399;SDS011;72039;48.812;8.198;2024-01-15T03:30:48;34.42;;;11.98;;
82399;SDS011;72039;48.812;8.198;2024-01-15T03:33:14;38.05;;;13.32;;
82399;SDS011;72039;48.812;8.198;2024-01-15T03:35:42;40.33;;;14.88;;
82399;SDS011;72039;48.812;8.198;2024-01-15T03:38:07;41.33;;;15.77;;
82399;SDS011;72039;48.812;8.198;2024-01-15T03:40:43;44.70;;;15.55;;
82399;SDS011;72039;48.812;8.198;2024-01-15T03:43:08;45.72;;;14.85;;
82399;SDS011;72039;48.812;8.198;2024-01-15T03:45:36;41.75;;;15.63;;
82399;SDS011;72039;48.812;8.198;2024-01-15T03:48:02;39.17;;;14.52;;
82399;SDS011;72039;48.812;8.198;2024-01-15T03:50:28;36.45;;;14.60;;
82399;SDS011;72039;48.812;8.198;2024-01-15T03:52:53;40.58;;;14.63;;
82399;SDS011;72039;48.812;8.198;2024-01-15T03:55:19;44.53;;;15.30;;
82399;SDS011;72039;48.812;8.198;2024-01-15T03:57:46;38.33;;;15.35;;
82399;SDS011;72039;48.812;8.198;2024-01-15T04:00:12;37.63;;;13.05;;
82399;SDS011;72039;48.812;8.198;2024-01-15T04:02:39;41.53;;;15.02;;
82399;SDS011;72039;48.812;8.198;2024-01-15T04:05:07;36.78;;;14.30;;
82399;SDS011;72039;48.812;8.198;2024-01-15T04:07:32;35.45;;;13.68;;
82399;SDS011;72039;48.812;8.198;2024-01-15T04:09:57;39.75;;;14.85;;
82399;SDS011;72039;48.812;8.198;2024-01-15T04:12:23;38.10;;;14.10;;
82399;SDS011;72039;48.812;8.198;2024-01-15T04:14:51;42.70;;;13.68;;
82399;SDS011;72039;48.812;8.198;2024-01-15T04:17:23;40.58;;;13.88;;
82399;SDS011;72039;48.812;8.198;2024-01-15T04:19:49;39.05;;;15.07;;
82399;SDS011;72039;48.812;8.198;2024-01-15T04:22:14;32.00;;;12.85;;
82399;SDS011;72039;48.812;8.198;2024-01-15T04:24:39;37.05;;;14.57;;
82399;SDS011;72039;48.812;8.198;2024-01-15T04:27:12;32.88;;;12.40;;
82399;SDS011;72039;48.812;8.198;2024-01-15T04:29:38;42.88;;;15.27;;
82399;SDS011;72039;48.812;8.198;2024-01-15T04:32:05;37.97;;;13.05;;
82399;SDS011;72039;48.812;8.198;2024-01-15T04:34:31;37.53;;;13.60;;
82399;SDS011;72039;48.812;8.198;2024-01-15T04:36:56;39.80;;;14.65;;
82399;SDS011;72039;48.812;8.198;2024-01-15T04:39:22;34.17;;;13.23;;
82399;SDS011;72039;48.812;8.198;2024-01-15T04:41:49;35.70;;;13.68;;
82399;SDS011;72039;48.812;8.198;2024-01-15T04:44:15;38.35;;;14.15;;
82399;SDS011;72039;48.812;8.198;2024-01-15T04:46:42;40.85;;;15.38;;
82399;SDS011;72039;48.812;8.198;2024-01-15T04:49:08;38.55;;;13.63;;
82399;SDS011;72039;48.812;8.198;2024-01-15T04:51:36;38.83;;;14.30;;
82399;SDS011;72039;48.812;8.198;2024-01-15T04:54:01;41.03;;;13.23;;
82399;SDS011;72039;48.812;8.198;2024-01-15T04:56:28;36.22;;;14.38;;
82399;SDS011;72039;48.812;8.198;2024-01-15T04:58:53;37.75;;;14.35;;
82399;SDS011;72039;48.812;8.198;2024-01-15T05:01:21;36.40;;;14.75;;
82399;SDS011;72039;48.812;8.198;2024-01-15T05:03:46;36.28;;;14.77;;
82399;SDS011;72039;48.812;8.198;2024-01-15T05:06:12;44.13;;;15.18;;
82399;SDS011;72039;48.812;8.198;2024-01-15T05:08:39;40.05;;;15.50;;
82399;SDS011;72039;48.812;8.198;2024-01-15T05:11:09;39.45;;;16.13;;
82399;SDS011;72039;48.812;8.198;2024-01-15T05:13:34;41.05;;;15.25;;
82399;SDS011;72039;48.812;8.198;2024-01-15T05:16:00;42.85;;;16.13;;
82399;SDS011;72039;48.812;8.198;2024-01-15T05:18:30;41.72;;;16.25;;
82399;SDS011;72039;48.812;8.198;2024-01-15T05:20:55;38.25;;;14.35;;
82399;SDS011;72039;48.812;8.198;2024-01-15T05:23:21;38.00;;;15.50;;
82399;SDS011;72039;48.812;8.198;2024-01-15T05:25:51;42.03;;;16.60;;
82399;SDS011;72039;48.812;8.198;2024-01-15T05:28:17;44.63;;;15.05;;
82399;SDS011;72039;48.812;8.198;2024-01-15T05:30:45;32.75;;;14.10;;
82399;SDS011;72039;48.812;8.198;2024-01-15T05:33:11;32.38;;;14.35;;
82399;SDS011;72039;48.812;8.198;2024-01-15T05:35:37;41.03;;;15.80;;
82399;SDS011;72039;48.812;8.198;2024-01-15T05:38:02;54.10;;;19.02;;
82399;SDS011;72039;48.812;8.198;2024-01-15T05:40:28;35.13;;;14.80;;
82399;SDS011;72039;48.812;8.198;2024-01-15T05:42:54;39.50;;;17.02;;
82399;SDS011;72039;48.812;8.198;2024-01-15T05:45:20;40.58;;;16.08;;
82399;SDS011;72039;48.812;8.198;2024-01-15T05:47:45;37.50;;;14.98;;
82399;SDS011;72039;48.812;8.198;2024-01-15T05:53:32;34.50;;;14.57;;
82399;SDS011;72039;48.812;8.198;2024-01-15T05:59:19;38.50;;;14.77;;
82399;SDS011;72039;48.812;8.198;2024-01-15T06:05:17;33.47;;;14.35;;
82399;SDS011;72039;48.812;8.198;2024-01-15T06:14:28;39.03;;;14.30;;
82399;SDS011;72039;48.812;8.198;2024-01-15T06:20:18;26.70;;;11.20;;
82399;SDS011;72039;48.812;8.198;2024-01-15T06:26:07;34.53;;;13.88;;
82399;SDS011;72039;48.812;8.198;2024-01-15T06:31:56;29.38;;;12.48;;
82399;SDS011;72039;48.812;8.198;2024-01-15T06:37:45;33.65;;;13.20;;
82399;SDS011;72039;48.812;8.198;2024-01-15T06:43:32;27.55;;;11.60;;
82399;SDS011;72039;48.812;8.198;2024-01-15T06:49:21;23.92;;;11.23;;
82399;SDS011;72039;48.812;8.198;2024-01-15T06:55:09;28.35;;;11.95;;
82399;SDS011;72039;48.812;8.198;2024-01-15T07:00:58;28.23;;;11.02;;
82399;SDS011;72039;48.812;8.198;2024-01-15T07:06:50;24.98;;;10.25;;
82399;SDS011;72039;48.812;8.198;2024-01-15T07:22:35;27.88;;;10.80;;
82399;SDS011;72039;48.812;8.198;2024-01-15T07:28:25;27.35;;;10.38;;
82399;SDS011;72039;48.812;8.198;2024-01-15T07:34:15;26.38;;;10.60;;
82399;SDS011;72039;48.812;8.198;2024-01-15T07:40:04;26.52;;;11.40;;
82399;SDS011;72039;48.812;8.198;2024-01-15T07:45:53;28.50;;;12.10;;
82399;SDS011;72039;48.812;8.198;2024-01-15T07:51:40;32.88;;;12.55;;
82399;SDS011;72039;48.812;8.198;2024-01-15T07:57:30;31.95;;;13.40;;
82399;SDS011;72039;48.812;8.198;2024-01-15T08:03:16;35.58;;;12.80;;
82399;SDS011;72039;48.812;8.198;2024-01-15T08:09:05;33.55;;;13.60;;
82399;SDS011;72039;48.812;8.198;2024-01-15T08:25:02;31.63;;;14.32;;
82399;SDS011;72039;48.812;8.198;2024-01-15T08:30:49;34.95;;;14.05;;
82399;SDS011;72039;48.812;8.198;2024-01-15T08:36:36;35.45;;;14.55;;
82399;SDS011;72039;48.812;8.198;2024-01-15T08:42:27;28.45;;;13.48;;
82399;SDS011;72039;48.812;8.198;2024-01-15T08:48:14;37.78;;;13.93;;
82399;SDS011;72039;48.812;8.198;2024-01-15T08:54:01;31.25;;;13.52;;
82399;SDS011;72039;48.812;8.198;2024-01-15T08:59:48;28.95;;;12.40;;
82399;SDS011;72039;48.812;8.198;2024-01-15T09:05:34;39.25;;;14.60;;
82399;SDS011;72039;48.812;8.198;2024-01-15T09:11:24;35.47;;;13.82;;
82399;SDS011;72039;48.812;8.198;2024-01-15T09:17:11;42.75;;;15.85;;
82399;SDS011;72039;48.812;8.198;2024-01-15T09:22:58;39.58;;;15.63;;
82399;SDS011;72039;48.812;8.198;2024-01-15T09:28:47;41.53;;;14.90;;
82399;SDS011;72039;48.812;8.198;2024-01-15T09:34:34;35.30;;;12.65;;
82399;SDS011;72039;48.812;8.198;2024-01-15T09:40:21;33.25;;;14.40;;
82399;SDS011;72039;48.812;8.198;2024-01-15T09:46:17;34.20;;;14.23;;
82399;SDS011;72039;48.812;8.198;2024-01-15T09:52:07;41.10;;;14.77;;
82399;SDS011;72039;48.812;8.198;2024-01-15T09:57:55;38.22;;;15.43;;
82399;SDS011;72039;48.812;8.198;2024-01-15T10:03:49;39.90;;;15.27;;
82399;SDS011;72039;48.812;8.198;2024-01-15T10:09:37;44.10;;;16.98;;
82399;SDS011;72039;48.812;8.198;2024-01-15T10:15:25;41.20;;;15.15;;
82399;SDS011;72039;48.812;8.198;2024-01-15T10:23:46;42.05;;;14.60;;
82399;SDS011;72039;48.812;8.198;2024-01-15T10:26:12;39.92;;;14.15;;
82399;SDS011;72039;48.812;8.198;2024-01-15T10:28:40;33.63;;;12.10;;
82399;SDS011;72039;48.812;8.198;2024-01-15T10:31:06;40.10;;;14.25;;
82399;SDS011;72039;48.812;8.198;2024-01-15T10:33:31;33.65;;;13.45;;
82399;SDS011;72039;48.812;8.198;2024-01-15T10:36:22;30.10;;;12.00;;
82399;SDS011;72039;48.812;8.198;2024-01-15T10:38:47;22.80;;;10.90;;
82399;SDS011;72039;48.812;8.198;2024-01-15T10:41:13;31.60;;;11.77;;
82399;SDS011;72039;48.812;8.198;2024-01-15T10:43:38;30.20;;;12.05;;
82399;SDS011;72039;48.812;8.198;2024-01-15T10:46:06;30.42;;;11.77;;
82399;SDS011;72039;48.812;8.198;2024-01-15T10:48:32;24.45;;;9.90;;
82399;SDS011;72039;48.812;8.198;2024-01-15T10:50:59;27.63;;;9.35;;
82399;SDS011;72039;48.812;8.198;2024-01-15T10:53:25;28.02;;;11.27;;
82399;SDS011;72039;48.812;8.198;2024-01-15T10:55:54;28.70;;;11.95;;
82399;SDS011;72039;48.812;8.198;2024-01-15T10:58:20;32.50;;;10.45;;
82399;SDS011;72039;48.812;8.198;2024-01-15T11:00:48;24.48;;;9.65;;
82399;SDS011;72039;48.812;8.198;2024-01-15T11:03:14;26.33;;;9.85;;
82399;SDS011;72039;48.812;8.198;2024-01-15T11:05:42;26.75;;;10.68;;
82399;SDS011;72039;48.812;8.198;2024-01-15T11:08:09;18.67;;;7.80;;
82399;SDS011;72039;48.812;8.198;2024-01-15T11:10:38;25.85;;;10.30;;
82399;SDS011;72039;48.812;8.198;2024-01-15T11:13:04;28.67;;;10.52;;
82399;SDS011;72039;48.812;8.198;2024-01-15T11:15:32;26.80;;;10.75;;
82399;SDS011;72039;48.812;8.198;2024-01-15T11:18:32;29.17;;;11.25;;
82399;SDS011;72039;48.812;8.198;2024-01-15T11:24:00;21.13;;;10.38;;
82399;SDS011;72039;48.812;8.198;2024-01-15T11:28:56;21.73;;;10.15;;
82399;SDS011;72039;48.812;8.198;2024-01-15T11:31:29;22.55;;;8.35;;
82399;SDS011;72039;48.812;8.198;2024-01-15T11:34:14;22.63;;;9.30;;
82399;SDS011;72039;48.812;8.198;2024-01-15T11:41:58;17.05;;;7.65;;
82399;SDS011;72039;48.812;8.198;2024-01-15T11:44:27;26.20;;;10.32;;
82399;SDS011;72039;48.812;8.198;2024-01-15T11:47:02;25.10;;;9.88;;
82399;SDS011;72039;48.812;8.198;2024-01-15T11:52:16;30.42;;;8.48;;
82399;SDS011;72039;48.812;8.198;2024-01-15T11:57:52;27.20;;;10.48;;
82399;SDS011;72039;48.812;8.198;2024-01-15T12:00:23;26.45;;;10.20;;
82399;SDS011;72039;48.812;8.198;2024-01-15T12:02:49;27.77;;;9.75;;
82399;SDS011;72039;48.812;8.198;2024-01-15T12:05:19;23.52;;;10.40;;
82399;SDS011;72039;48.812;8.198;2024-01-15T12:07:46;25.65;;;11.07;;
82399;SDS011;72039;48.812;8.198;2024-01-15T12:10:15;31.63;;;13.15;;
82399;SDS011;72039;48.812;8.198;2024-01-15T12:15:49;37.53;;;14.07;;
82399;SDS011;72039;48.812;8.198;2024-01-15T12:18:19;33.47;;;13.38;;
82399;SDS011;72039;48.812;8.198;2024-01-15T12:20:45;33.03;;;13.15;;
82399;SDS011;72039;48.812;8.198;2024-01-15T12:23:14;30.42;;;12.77;;
82399;SDS011;72039;48.812;8.198;2024-01-15T12:25:40;33.78;;;13.90;;
82399;SDS011;72039;48.812;8.198;2024-01-15T12:28:06;35.25;;;13.48;;
82399;SDS011;72039;48.812;8.198;2024-01-15T12:30:38;24.95;;;12.13;;
82399;SDS011;72039;48.812;8.198;2024-01-15T12:33:08;31.38;;;12.68;;
82399;SDS011;72039;48.812;8.198;2024-01-15T12:35:34;35.63;;;13.38;;
82399;SDS011;72039;48.812;8.198;2024-01-15T12:38:00;36.95;;;14.02;;
82399;SDS011;72039;48.812;8.198;2024-01-15T12:40:30;36.80;;;14.50;;
82399;SDS011;72039;48.812;8.198;2024-01-15T12:42:59;38.95;;;14.50;;
82399;SDS011;72039;48.812;8.198;2024-01-15T12:45:25;35.97;;;13.65;;
82399;SDS011;72039;48.812;8.198;2024-01-15T12:47:55;41.72;;;15.18;;
82399;SDS011;72039;48.812;8.198;2024-01-15T12:50:24;32.15;;;14.23;;
82399;SDS011;72039;48.812;8.198;2024-01-15T12:53:02;43.25;;;16.15;;
82399;SDS011;72039;48.812;8.198;2024-01-15T12:55:27;38.15;;;14.43;;
82399;SDS011;72039;48.812;8.198;2024-01-15T12:57:55;38.70;;;14.23;;
82399;SDS011;72039;48.812;8.198;2024-01-15T13:00:21;42.70;;;15.20;;
82399;SDS011;72039;48.812;8.198;2024-01-15T13:02:48;31.52;;;13.13;;
82399;SDS011;72039;48.812;8.198;2024-01-15T13:05:14;42.05;;;16.00;;
82399;SDS011;72039;48.812;8.198;2024-01-15T13:07:44;48.78;;;18.00;;
82399;SDS011;72039;48.812;8.198;2024-01-15T13:10:09;42.47;;;15.15;;
82399;SDS011;72039;48.812;8.198;2024-01-15T13:12:37;34.17;;;12.80;;
82399;SDS011;72039;48.812;8.198;2024-01-15T13:15:05;34.33;;;13.68;;
82399;SDS011;72039;48.812;8.198;2024-01-15T13:17:36;31.67;;;14.15;;
82399;SDS011;72039;48.812;8.198;2024-01-15T13:20:02;31.63;;;12.93;;
82399;SDS011;72039;48.812;8.198;2024-01-15T13:22:31;48.92;;;13.82;;
82399;SDS011;72039;48.812;8.198;2024-01-15T13:24:57;31.80;;;10.88;;
82399;SDS011;72039;48.812;8.198;2024-01-15T13:27:23;31.00;;;12.98;;
82399;SDS011;72039;48.812;8.198;2024-01-15T13:29:49;34.47;;;13.82;;
82399;SDS011;72039;48.812;8.198;2024-01-15T13:32:15;26.27;;;11.20;;
82399;SDS011;72039;48.812;8.198;2024-01-15T13:37:12;24.58;;;9.32;;
82399;SDS011;72039;48.812;8.198;2024-01-15T13:39:45;22.60;;;10.32;;
82399;SDS011;72039;48.812;8.198;2024-01-15T13:42:12;22.17;;;8.20;;
82399;SDS011;72039;48.812;8.198;2024-01-15T13:44:40;24.90;;;10.23;;
82399;SDS011;72039;48.812;8.198;2024-01-15T13:47:09;21.48;;;9.80;;
82399;SDS011;72039;48.812;8.198;2024-01-15T13:49:35;20.83;;;9.63;;
82399;SDS011;72039;48.812;8.198;2024-01-15T13:52:01;21.15;;;9.00;;
82399;SDS011;72039;48.812;8.198;2024-01-15T13:54:30;24.60;;;10.00;;
82399;SDS011;72039;48.812;8.198;2024-01-15T13:56:59;26.23;;;11.00;;
82399;SDS011;72039;48.812;8.198;2024-01-15T13:59:28;20.60;;;8.60;;
82399;SDS011;72039;48.812;8.198;2024-01-15T14:01:53;24.60;;;9.77;;
82399;SDS011;72039;48.812;8.198;2024-01-15T14:04:19;27.13;;;10.70;;
82399;SDS011;72039;48.812;8.198;2024-01-15T14:06:51;25.27;;;9.80;;
82399;SDS011;72039;48.812;8.198;2024-01-15T14:09:17;22.48;;;9.40;;
82399;SDS011;72039;48.812;8.198;2024-01-15T14:11:46;24.15;;;10.65;;
82399;SDS011;72039;48.812;8.198;2024-01-15T14:14:12;20.98;;;10.00;;
82399;SDS011;72039;48.812;8.198;2024-01-15T14:16:40;19.55;;;9.60;;
82399;SDS011;72039;48.812;8.198;2024-01-15T14:19:05;24.85;;;10.50;;
82399;SDS011;72039;48.812;8.198;2024-01-15T14:21:34;20.88;;;9.57;;
82399;SDS011;72039;48.812;8.198;2024-01-15T14:24:00;28.83;;;10.75;;
82399;SDS011;72039;48.812;8.198;2024-01-15T14:26:28;22.20;;;9.90;;
82399;SDS011;72039;48.812;8.198;2024-01-15T14:28:56;17.33;;;8.82;;
82399;SDS011;72039;48.812;8.198;2024-01-15T14:31:21;21.63;;;10.32;;
82399;SDS011;72039;48.812;8.198;2024-01-15T14:33:47;26.48;;;9.63;;
82399;SDS011;72039;48.812;8.198;2024-01-15T14:36:12;22.02;;;10.18;;
82399;SDS011;72039;48.812;8.198;2024-01-15T14:38:42;21.58;;;10.20;;
82399;SDS011;72039;48.812;8.198;2024-01-15T14:41:10;18.23;;;8.57;;
82399;SDS011;72039;48.812;8.198;2024-01-15T14:43:35;23.65;;;8.93;;
82399;SDS011;72039;48.812;8.198;2024-01-15T14:46:03;20.02;;;8.40;;
82399;SDS011;72039;48.812;8.198;2024-01-15T14:48:28;22.15;;;9.55;;
82399;SDS011;72039;48.812;8.198;2024-01-15T14:50:54;17.70;;;8.93;;
82399;SDS011;72039;48.812;8.198;2024-01-15T14:53:22;17.73;;;8.77;;
82399;SDS011;72039;48.812;8.198;2024-01-15T14:55:52;15.20;;;7.43;;
82399;SDS011;72039;48.812;8.198;2024-01-15T14:58:19;15.77;;;7.43;;
82399;SDS011;72039;48.812;8.198;2024-01-15T15:00:44;16.50;;;7.85;;
82399;SDS011;72039;48.812;8.198;2024-01-15T15:03:11;17.55;;;9.38;;
82399;SDS011;72039;48.812;8.198;2024-01-15T15:05:38;20.02;;;8.52;;
82399;SDS011;72039;48.812;8.198;2024-01-15T15:08:04;18.85;;;8.93;;
82399;SDS011;72039;48.812;8.198;2024-01-15T15:10:33;17.40;;;9.85;;
82399;SDS011;72039;48.812;8.198;2024-01-15T15:13:01;15.45;;;8.40;;
82399;SDS011;72039;48.812;8.198;2024-01-15T15:15:28;21.52;;;10.43;;
82399;SDS011;72039;48.812;8.198;2024-01-15T15:17:58;34.63;;;13.43;;
82399;SDS011;72039;48.812;8.198;2024-01-15T15:20:24;19.27;;;8.32;;
82399;SDS011;72039;48.812;8.198;2024-01-15T15:22:49;33.75;;;12.68;;
82399;SDS011;72039;48.812;8.198;2024-01-15T15:25:14;21.67;;;10.05;;
82399;SDS011;72039;48.812;8.198;2024-01-15T15:27:40;21.33;;;10.77;;
82399;SDS011;72039;48.812;8.198;2024-01-15T15:30:10;19.00;;;8.73;;
82399;SDS011;72039;48.812;8.198;2024-01-15T15:32:38;14.82;;;8.30;;
82399;SDS011;72039;48.812;8.198;2024-01-15T15:35:26;20.48;;;9.38;;
82399;SDS011;72039;48.812;8.198;2024-01-15T15:37:55;15.80;;;8.02;;
82399;SDS011;72039;48.812;8.198;2024-01-15T15:40:23;16.77;;;7.70;;
82399;SDS011;72039;48.812;8.198;2024-01-15T15:42:50;17.42;;;8.68;;
82399;SDS011;72039;48.812;8.198;2024-01-15T15:45:18;17.48;;;8.38;;
82399;SDS011;72039;48.812;8.198;2024-01-15T15:47:46;15.88;;;7.57;;
82399;SDS011;72039;48.812;8.198;2024-01-15T15:50:12;15.40;;;8.15;;
82399;SDS011;72039;48.812;8.198;2024-01-15T15:52:40;15.95;;;8.10;;
82399;SDS011;72039;48.812;8.198;2024-01-15T15:55:05;15.82;;;8.07;;
82399;SDS011;72039;48.812;8.198;2024-01-15T15:57:37;17.05;;;8.27;;
82399;SDS011;72039;48.812;8.198;2024-01-15T16:00:02;19.02;;;8.07;;
82399;SDS011;72039;48.812;8.198;2024-01-15T16:02:30;20.20;;;8.98;;
82399;SDS011;72039;48.812;8.198;2024-01-15T16:04:55;16.73;;;8.40;;
82399;SDS011;72039;48.812;8.198;2024-01-15T16:07:21;16.20;;;7.35;;
82399;SDS011;72039;48.812;8.198;2024-01-15T16:09:48;13.32;;;7.25;;
82399;SDS011;72039;48.812;8.198;2024-01-15T16:12:14;13.82;;;7.30;;
82399;SDS011;72039;48.812;8.198;2024-01-15T16:14:41;14.10;;;6.40;;
82399;SDS011;72039;48.812;8.198;2024-01-15T16:17:09;17.65;;;7.93;;
82399;SDS011;72039;48.812;8.198;2024-01-15T16:19:34;14.55;;;6.72;;
82399;SDS011;72039;48.812;8.198;2024-01-15T16:22:02;16.02;;;7.00;;
82399;SDS011;72039;48.812;8.198;2024-01-15T16:24:30;10.85;;;5.90;;
82399;SDS011;72039;48.812;8.198;2024-01-15T16:26:56;12.73;;;5.75;;
82399;SDS011;72039;48.812;8.198;2024-01-15T16:29:21;11.82;;;5.78;;
82399;SDS011;72039;48.812;8.198;2024-01-15T16:31:49;16.75;;;7.10;;
82399;SDS011;72039;48.812;8.198;2024-01-15T16:34:17;15.65;;;7.63;;
82399;SDS011;72039;48.812;8.198;2024-01-15T16:36:43;12.25;;;6.90;;
82399;SDS011;72039;48.812;8.198;2024-01-15T16:39:11;15.23;;;7.55;;
82399;SDS011;72039;48.812;8.198;2024-01-15T16:41:36;11.32;;;6.60;;
82399;SDS011;72039;48.812;8.198;2024-01-15T16:44:02;13.88;;;7.53;;
82399;SDS011;72039;48.812;8.198;2024-01-15T16:46:29;10.38;;;5.85;;
82399;SDS011;72039;48.812;8.198;2024-01-15T16:48:55;13.48;;;6.68;;
82399;SDS011;72039;48.812;8.198;2024-01-15T16:51:21;13.43;;;6.30;;
82399;SDS011;72039;48.812;8.198;2024-01-15T16:53:49;11.02;;;6.20;;
82399;SDS011;72039;48.812;8.198;2024-01-15T16:56:14;22.52;;;9.43;;
82399;SDS011;72039;48.812;8.198;2024-01-15T16:58:40;14.32;;;6.75;;
82399;SDS011;72039;48.812;8.198;2024-01-15T17:01:05;12.60;;;6.75;;
82399;SDS011;72039;48.812;8.198;2024-01-15T17:03:33;11.98;;;6.25;;
82399;SDS011;72039;48.812;8.198;2024-01-15T17:06:01;15.18;;;6.95;;
82399;SDS011;72039;48.812;8.198;2024-01-15T17:08:27;12.20;;;6.70;;
82399;SDS011;72039;48.812;8.198;2024-01-15T17:10:54;12.63;;;6.68;;
82399;SDS011;72039;48.812;8.198;2024-01-15T17:13:19;11.50;;;5.95;;
82399;SDS011;72039;48.812;8.198;2024-01-15T17:15:45;9.30;;;5.03;;
82399;SDS011;72039;48.812;8.198;2024-01-15T17:18:13;13.45;;;6.63;;
82399;SDS011;72039;48.812;8.198;2024-01-15T17:20:38;16.40;;;7.07;;
82399;SDS011;72039;48.812;8.198;2024-01-15T17:23:10;10.50;;;5.68;;
82399;SDS011;72039;48.812;8.198;2024-01-15T17:25:35;13.77;;;6.75;;
82399;SDS011;72039;48.812;8.198;2024-01-15T17:28:02;12.13;;;6.68;;
82399;SDS011;72039;48.812;8.198;2024-01-15T17:30:28;13.25;;;7.03;;
82399;SDS011;72039;48.812;8.198;2024-01-15T17:32:57;14.73;;;7.55;;
82399;SDS011;72039;48.812;8.198;2024-01-15T17:35:22;14.55;;;6.85;;
82399;SDS011;72039;48.812;8.198;2024-01-15T17:37:48;13.25;;;6.70;;
82399;SDS011;72039;48.812;8.198;2024-01-15T17:40:17;13.68;;;7.95;;
82399;SDS011;72039;48.812;8.198;2024-01-15T17:42:42;16.60;;;7.53;;
82399;SDS011;72039;48.812;8.198;2024-01-15T17:45:10;16.00;;;8.25;;
82399;SDS011;72039;48.812;8.198;2024-01-15T17:47:40;13.02;;;6.75;;
82399;SDS011;72039;48.812;8.198;2024-01-15T17:50:08;17.25;;;8.32;;
82399;SDS011;72039;48.812;8.198;2024-01-15T17:52:34;19.38;;;8.00;;
82399;SDS011;72039;48.812;8.198;2024-01-15T17:55:01;15.90;;;7.60;;
82399;SDS011;72039;48.812;8.198;2024-01-15T17:57:32;14.77;;;7.80;;
82399;SDS011;72039;48.812;8.198;2024-01-15T18:00:00;14.32;;;7.95;;
82399;SDS011;72039;48.812;8.198;2024-01-15T18:02:26;16.77;;;6.72;;
82399;SDS011;72039;48.812;8.198;2024-01-15T18:04:53;14.85;;;6.50;;
82399;SDS011;72039;48.812;8.198;2024-01-15T18:07:19;18.92;;;8.48;;
82399;SDS011;72039;48.812;8.198;2024-01-15T18:09:45;11.27;;;5.78;;
82399;SDS011;72039;48.812;8.198;2024-01-15T18:12:12;14.52;;;6.18;;
82399;SDS011;72039;48.812;8.198;2024-01-15T18:14:40;12.85;;;6.18;;
82399;SDS011;72039;48.812;8.198;2024-01-15T18:17:08;10.70;;;5.80;;
82399;SDS011;72039;48.812;8.198;2024-01-15T18:22:06;9.57;;;5.43;;
82399;SDS011;72039;48.812;8.198;2024-01-15T18:24:31;12.98;;;6.25;;
82399;SDS011;72039;48.812;8.198;2024-01-15T18:26:57;10.57;;;5.60;;
82399;SDS011;72039;48.812;8.198;2024-01-15T18:29:26;12.23;;;5.70;;
82399;SDS011;72039;48.812;8.198;2024-01-15T18:31:51;11.23;;;5.72;;
82399;SDS011;72039;48.812;8.198;2024-01-15T18:34:17;14.20;;;6.03;;
82399;SDS011;72039;48.812;8.198;2024-01-15T18:36:42;17.52;;;7.15;;
82399;SDS011;72039;48.812;8.198;2024-01-15T18:39:11;19.02;;;8.48;;
82399;SDS011;72039;48.812;8.198;2024-01-15T18:41:37;16.90;;;7.68;;
82399;SDS011;72039;48.812;8.198;2024-01-15T18:44:05;16.30;;;8.25;;
82399;SDS011;72039;48.812;8.198;2024-01-15T18:46:30;15.20;;;6.13;;
82399;SDS011;72039;48.812;8.198;2024-01-15T18:48:55;29.45;;;11.05;;
82399;SDS011;72039;48.812;8.198;2024-01-15T18:51:21;11.32;;;6.57;;
82399;SDS011;72039;48.812;8.198;2024-01-15T18:53:55;17.67;;;7.95;;
82399;SDS011;72039;48.812;8.198;2024-01-15T18:56:23;12.48;;;6.97;;
82399;SDS011;72039;48.812;8.198;2024-01-15T18:58:50;14.88;;;6.80;;
82399;SDS011;72039;48.812;8.198;2024-01-15T19:03:55;15.10;;;6.97;;
82399;SDS011;72039;48.812;8.198;2024-01-15T19:15:58;16.48;;;8.45;;
82399;SDS011;72039;48.812;8.198;2024-01-15T19:21:47;13.52;;;7.43;;
82399;SDS011;72039;48.812;8.198;2024-01-15T19:27:36;13.98;;;6.55;;
82399;SDS011;72039;48.812;8.198;2024-01-15T19:33:30;13.90;;;7.53;;
82399;SDS011;72039;48.812;8.198;2024-01-15T19:39:18;12.80;;;7.50;;
82399;SDS011;72039;48.812;8.198;2024-01-15T19:45:10;12.43;;;5.50;;
82399;SDS011;72039;48.812;8.198;2024-01-15T19:50:57;15.95;;;8.18;;
82399;SDS011;72039;48.812;8.198;2024-01-15T19:56:57;13.98;;;6.78;;
82399;SDS011;72039;48.812;8.198;2024-01-15T20:02:57;13.25;;;6.50;;
82399;SDS011;72039;48.812;8.198;2024-01-15T20:08:44;10.63;;;5.82;;
82399;SDS011;72039;48.812;8.198;2024-01-15T20:14:33;12.88;;;5.18;;
82399;SDS011;72039;48.812;8.198;2024-01-15T20:20:21;10.60;;;6.40;;
82399;SDS011;72039;48.812;8.198;2024-01-15T20:26:11;10.98;;;6.20;;
82399;SDS011;72039;48.812;8.198;2024-01-15T20:35:30;13.82;;;6.68;;
82399;SDS011;72039;48.812;8.198;2024-01-15T20:41:19;13.35;;;5.43;;